createdAt,value
2017-02-01T00:00:04.000Z,0.34
2017-02-01T00:00:44.648Z,0.47
2017-02-01T00:01:25.247Z,0.41
2017-02-01T00:02:05.958Z,0.52
2017-02-01T00:02:47.628Z,0.44
2017-02-01T00:03:28.287Z,0.47
2017-02-01T00:04:08.939Z,0.58
2017-02-01T00:04:50.612Z,0.62
2017-02-01T00:05:32.306Z,0.62
2017-02-01T00:06:12.946Z,0.65
2017-02-01T00:06:53.703Z,0.59
2017-02-01T00:07:34.346Z,0.62
2017-02-01T00:08:15.002Z,0.7
2017-02-01T00:08:55.658Z,0.73
2017-02-01T00:09:36.311Z,0.74
2017-02-01T00:10:16.960Z,0.73
2017-02-01T00:10:57.615Z,0.7
2017-02-01T00:11:38.270Z,0.7
2017-02-01T00:12:18.924Z,0.68
2017-02-01T00:12:59.580Z,0.81
2017-02-01T00:13:40.227Z,0.74
2017-02-01T00:14:20.877Z,0.7
2017-02-01T00:15:01.531Z,0.77
2017-02-01T00:15:42.189Z,0.77
2017-02-01T00:16:22.835Z,0.8
2017-02-01T00:17:03.595Z,0.78
2017-02-01T00:17:44.250Z,0.83
2017-02-01T00:18:24.900Z,0.8
2017-02-01T00:19:05.556Z,0.86
2017-02-01T00:19:46.211Z,0.81
2017-02-01T00:20:26.856Z,0.81
2017-02-01T00:21:07.435Z,0.8
2017-02-01T00:21:48.086Z,0.81
2017-02-01T00:22:28.818Z,0.94
2017-02-01T00:23:09.398Z,0.86
2017-02-01T00:23:50.098Z,0.86
2017-02-01T00:24:30.775Z,0.96
2017-02-01T00:25:11.357Z,0.94
2017-02-01T00:25:52.002Z,0.88
2017-02-01T00:26:32.731Z,0.92
2017-02-01T00:27:13.317Z,1.01
2017-02-01T00:27:53.960Z,0.98
2017-02-01T00:28:34.617Z,0.98
2017-02-01T00:29:15.272Z,0.95
2017-02-01T00:29:55.921Z,0.95
2017-02-01T00:30:36.576Z,0.96
2017-02-01T00:31:17.271Z,0.99
2017-02-01T00:31:57.963Z,1.02
2017-02-01T00:32:38.528Z,0.92
2017-02-01T00:33:19.185Z,1.04
2017-02-01T00:33:59.882Z,0.99
2017-02-01T00:34:40.577Z,1.02
2017-02-01T00:35:21.140Z,1.01
2017-02-01T00:36:01.789Z,0.99
2017-02-01T00:36:42.484Z,0.98
2017-02-01T00:37:23.188Z,1.05
2017-02-01T00:38:03.753Z,1.06
2017-02-01T00:38:44.401Z,1.06
2017-02-01T00:39:26.119Z,1.06
2017-02-01T00:40:06.823Z,1.04
2017-02-01T00:40:47.386Z,1.04
2017-02-01T00:41:28.059Z,1.04
2017-02-01T00:42:08.693Z,1.13
2017-02-01T00:42:49.336Z,1.13
2017-02-01T00:43:29.994Z,1.14
2017-02-01T00:44:10.641Z,1.16
2017-02-01T00:44:51.309Z,1.13
2017-02-01T00:45:31.953Z,1.14
2017-02-01T00:46:12.607Z,1.17
2017-02-01T00:46:53.253Z,1.13
2017-02-01T00:47:33.912Z,1.1
2017-02-01T00:48:14.562Z,1.05
2017-02-01T00:48:57.286Z,1.23
2017-02-01T00:49:37.948Z,1.1
2017-02-01T00:50:19.597Z,1.2
2017-02-01T00:51:00.245Z,1.2
2017-02-01T00:51:40.946Z,1.2
2017-02-01T00:52:21.644Z,1.28
2017-02-01T00:53:02.216Z,1.22
2017-02-01T00:53:42.873Z,1.2
2017-02-01T00:54:24.578Z,1.24
2017-02-01T00:55:05.285Z,1.24
2017-02-01T00:55:45.861Z,1.28
2017-02-01T00:56:28.544Z,1.26
2017-02-01T00:57:10.259Z,1.28
2017-02-01T00:57:50.962Z,1.31
2017-02-01T00:58:31.526Z,1.24
2017-02-01T00:59:12.178Z,1.24
2017-02-01T00:59:52.879Z,1.24
2017-02-01T01:00:33.576Z,1.23
2017-02-01T01:01:14.160Z,1.3
2017-02-01T01:01:54.822Z,1.3
2017-02-01T01:02:35.563Z,1.28
2017-02-01T01:03:16.221Z,1.26
2017-02-01T01:03:56.953Z,1.32
2017-02-01T01:04:37.602Z,1.28
2017-02-01T01:05:18.284Z,1.32
2017-02-01T01:05:59.020Z,1.32
2017-02-01T01:06:39.709Z,1.32
2017-02-01T01:07:20.419Z,1.28
2017-02-01T01:08:01.000Z,1.32
2017-02-01T01:08:41.744Z,1.38
2017-02-01T01:09:23.452Z,1.32
2017-02-01T01:10:04.153Z,1.35
2017-02-01T01:10:44.715Z,1.26
2017-02-01T01:11:25.377Z,1.34
2017-02-01T01:12:08.113Z,1.3
2017-02-01T01:12:48.811Z,1.31
2017-02-01T01:13:29.368Z,1.4
2017-02-01T01:14:10.035Z,1.38
2017-02-01T01:14:52.770Z,1.35
2017-02-01T01:15:33.470Z,1.35
2017-02-01T01:16:14.032Z,1.41
2017-02-01T01:16:54.704Z,1.34
2017-02-01T01:17:35.426Z,1.4
2017-02-01T01:18:15.986Z,1.49
2017-02-01T01:18:56.642Z,1.41
2017-02-01T01:19:37.283Z,1.49
2017-02-01T01:20:17.841Z,1.41
2017-02-01T01:20:58.497Z,1.52
2017-02-01T01:21:39.139Z,1.42
2017-02-01T01:22:19.703Z,1.5
2017-02-01T01:23:00.360Z,1.41
2017-02-01T01:23:41.052Z,1.45
2017-02-01T01:24:21.752Z,1.44
2017-02-01T01:25:02.330Z,1.52
2017-02-01T01:25:43.088Z,1.49
2017-02-01T01:26:23.766Z,1.45
2017-02-01T01:27:04.464Z,1.49
2017-02-01T01:27:59.766Z,1.49
2017-02-01T01:28:40.326Z,1.42
2017-02-01T01:29:20.982Z,1.5
2017-02-01T01:30:01.673Z,1.38
2017-02-01T01:30:42.368Z,1.48
2017-02-01T01:31:22.948Z,1.44
2017-02-01T01:32:03.697Z,1.44
2017-02-01T01:32:44.388Z,1.4
2017-02-01T01:33:25.086Z,1.49
2017-02-01T01:34:05.654Z,1.49
2017-02-01T01:34:46.305Z,1.45
2017-02-01T01:35:27.001Z,1.5
2017-02-01T01:36:07.704Z,1.5
2017-02-01T01:36:48.355Z,1.45
2017-02-01T01:37:29.005Z,1.44
2017-02-01T01:38:09.658Z,1.49
2017-02-01T01:38:50.312Z,1.5
2017-02-01T01:39:30.966Z,1.55
2017-02-01T01:40:11.617Z,1.48
2017-02-01T01:40:52.369Z,1.49
2017-02-01T01:41:32.932Z,1.52
2017-02-01T01:42:13.598Z,1.49
2017-02-01T01:42:54.281Z,1.5
2017-02-01T01:43:34.985Z,1.53
2017-02-01T01:44:15.539Z,1.55
2017-02-01T01:44:56.212Z,1.52
2017-02-01T01:45:36.897Z,1.5
2017-02-01T01:46:17.596Z,1.56
2017-02-01T01:46:58.169Z,1.55
2017-02-01T01:47:38.810Z,1.55
2017-02-01T01:48:19.504Z,1.48
2017-02-01T01:49:00.206Z,1.58
2017-02-01T01:49:40.765Z,1.48
2017-02-01T01:50:21.424Z,1.58
2017-02-01T01:51:02.137Z,1.56
2017-02-01T01:51:42.771Z,1.58
2017-02-01T01:52:23.425Z,1.48
2017-02-01T01:53:04.076Z,1.52
2017-02-01T01:53:44.731Z,1.53
2017-02-01T01:54:25.388Z,1.55
2017-02-01T01:55:06.139Z,1.53
2017-02-01T01:55:46.786Z,1.55
2017-02-01T01:56:27.357Z,1.52
2017-02-01T01:57:08.063Z,1.52
2017-02-01T01:57:48.798Z,1.53
2017-02-01T01:58:29.353Z,1.52
2017-02-01T01:59:10.011Z,1.53
2017-02-01T01:59:50.758Z,1.52
2017-02-01T02:00:31.327Z,1.53
2017-02-01T02:01:12.085Z,1.52
2017-02-01T02:01:52.818Z,1.55
2017-02-01T02:02:33.509Z,1.56
2017-02-01T02:03:14.224Z,1.53
2017-02-01T02:03:54.979Z,1.55
2017-02-01T02:04:35.635Z,1.56
2017-02-01T02:05:16.285Z,1.52
2017-02-01T02:05:57.042Z,1.52
2017-02-01T02:06:37.691Z,1.56
2017-02-01T02:07:18.345Z,1.55
2017-02-01T02:07:59.102Z,1.58
2017-02-01T02:08:39.755Z,1.52
2017-02-01T02:09:20.509Z,1.58
2017-02-01T02:10:01.161Z,1.62
2017-02-01T02:10:41.818Z,1.52
2017-02-01T02:11:22.572Z,1.62
2017-02-01T02:12:03.325Z,1.55
2017-02-01T02:12:44.080Z,1.59
2017-02-01T02:13:24.835Z,1.59
2017-02-01T02:14:05.594Z,1.58
2017-02-01T02:14:46.349Z,1.52
2017-02-01T02:15:27.103Z,1.55
2017-02-01T02:16:07.858Z,1.6
2017-02-01T02:16:48.615Z,1.66
2017-02-01T02:17:29.366Z,1.59
2017-02-01T02:18:10.124Z,1.6
2017-02-01T02:18:51.799Z,1.6
2017-02-01T02:19:32.559Z,1.58
2017-02-01T02:20:13.310Z,1.58
2017-02-01T02:20:53.966Z,1.59
2017-02-01T02:21:34.527Z,1.67
2017-02-01T02:22:15.188Z,1.59
2017-02-01T02:22:56.055Z,1.68
2017-02-01T02:23:36.812Z,1.58
2017-02-01T02:24:17.557Z,1.63
2017-02-01T02:24:58.292Z,1.59
2017-02-01T02:25:38.961Z,1.63
2017-02-01T02:26:19.627Z,1.59
2017-02-01T02:27:00.303Z,1.66
2017-02-01T02:27:41.003Z,1.58
2017-02-01T02:28:21.575Z,1.7
2017-02-01T02:29:02.334Z,1.58
2017-02-01T02:29:43.029Z,1.67
2017-02-01T02:30:23.717Z,1.63
2017-02-01T02:31:04.301Z,1.7
2017-02-01T02:31:44.951Z,1.7
2017-02-01T02:32:25.604Z,1.7
2017-02-01T02:33:06.177Z,1.7
2017-02-01T02:33:46.901Z,1.68
2017-02-01T02:34:28.662Z,1.7
2017-02-01T02:35:09.234Z,1.68
2017-02-01T02:35:50.911Z,1.6
2017-02-01T02:36:31.643Z,1.67
2017-02-01T02:37:12.217Z,1.67
2017-02-01T02:37:52.949Z,1.68
2017-02-01T02:38:33.671Z,1.71
2017-02-01T02:39:14.357Z,1.67
2017-02-01T02:39:54.933Z,1.68
2017-02-01T02:40:35.687Z,1.67
2017-02-01T02:41:16.368Z,1.71
2017-02-01T02:41:57.034Z,1.67
2017-02-01T02:42:37.793Z,1.7
2017-02-01T02:43:18.359Z,1.67
2017-02-01T02:43:59.096Z,1.67
2017-02-01T02:44:39.843Z,1.7
2017-02-01T02:45:20.491Z,1.76
2017-02-01T02:46:01.144Z,1.71
2017-02-01T02:46:42.845Z,1.68
2017-02-01T02:47:24.504Z,1.63
2017-02-01T02:48:05.170Z,1.71
2017-02-01T02:48:45.909Z,1.73
2017-02-01T02:49:26.685Z,1.66
2017-02-01T02:50:09.262Z,1.7
2017-02-01T02:50:50.029Z,1.67
2017-02-01T02:51:30.724Z,1.68
2017-02-01T02:52:11.291Z,1.67
2017-02-01T02:52:52.054Z,1.71
2017-02-01T02:53:32.741Z,1.71
2017-02-01T02:54:13.429Z,1.7
2017-02-01T02:54:53.998Z,1.71
2017-02-01T02:55:34.768Z,1.7
2017-02-01T02:56:15.450Z,1.66
2017-02-01T02:56:56.036Z,1.7
2017-02-01T02:57:36.719Z,1.7
2017-02-01T02:58:17.460Z,1.7
2017-02-01T02:58:58.026Z,1.74
2017-02-01T02:59:38.698Z,1.73
2017-02-01T03:00:20.440Z,1.73
2017-02-01T03:01:01.007Z,1.66
2017-02-01T03:01:46.236Z,1.71
2017-02-01T03:02:26.832Z,1.81
2017-02-01T03:03:07.409Z,1.76
2017-02-01T03:03:49.994Z,1.77
2017-02-01T03:04:30.695Z,1.74
2017-02-01T03:05:16.103Z,1.74
2017-02-01T03:05:56.680Z,1.68
2017-02-01T03:06:43.870Z,1.78
2017-02-01T03:07:24.546Z,1.8
2017-02-01T03:08:16.963Z,1.74
2017-02-01T03:08:57.605Z,1.76
2017-02-01T03:09:40.200Z,1.77
2017-02-01T03:10:22.807Z,1.77
2017-02-01T03:11:03.455Z,1.76
2017-02-01T03:11:45.136Z,1.74
2017-02-01T03:12:25.801Z,1.8
2017-02-01T03:13:06.435Z,1.78
2017-02-01T03:13:48.114Z,1.77
2017-02-01T03:14:30.715Z,1.76
2017-02-01T03:15:11.368Z,1.74
2017-02-01T03:15:57.879Z,1.74
2017-02-01T03:16:38.524Z,1.77
2017-02-01T03:17:19.151Z,1.77
2017-02-01T03:17:59.759Z,1.8
2017-02-01T03:18:40.365Z,1.77
2017-02-01T03:19:21.005Z,1.73
2017-02-01T03:20:01.577Z,1.71
2017-02-01T03:20:42.235Z,1.87
2017-02-01T03:21:22.859Z,1.76
2017-02-01T03:22:03.435Z,1.71
2017-02-01T03:22:44.076Z,1.76
2017-02-01T03:23:24.717Z,1.84
2017-02-01T03:24:05.296Z,1.84
2017-02-01T03:24:45.978Z,1.71
2017-02-01T03:25:28.622Z,1.8
2017-02-01T03:26:09.196Z,1.71
2017-02-01T03:26:50.857Z,1.77
2017-02-01T03:27:31.512Z,1.71
2017-02-01T03:28:16.878Z,1.85
2017-02-01T03:28:58.566Z,1.81
2017-02-01T03:29:39.207Z,1.87
2017-02-01T03:30:20.887Z,1.88
2017-02-01T03:31:07.387Z,1.71
2017-02-01T03:31:49.960Z,1.84
2017-02-01T03:32:30.641Z,1.73
2017-02-01T03:33:12.314Z,1.8
2017-02-01T03:33:53.990Z,1.85
2017-02-01T03:34:35.666Z,1.88
2017-02-01T03:35:16.317Z,1.88
2017-02-01T03:35:56.973Z,1.87
2017-02-01T03:36:42.442Z,1.74
2017-02-01T03:37:23.123Z,1.85
2017-02-01T03:38:04.745Z,1.84
2017-02-01T03:38:45.313Z,1.84
2017-02-01T03:39:25.963Z,1.74
2017-02-01T03:40:08.604Z,1.88
2017-02-01T03:40:50.225Z,1.8
2017-02-01T03:41:30.797Z,1.74
2017-02-01T03:42:16.462Z,1.81
2017-02-01T03:42:57.109Z,1.71
2017-02-01T03:43:37.787Z,1.81
2017-02-01T03:44:18.441Z,1.84
2017-02-01T03:44:59.085Z,1.85
2017-02-01T03:45:39.733Z,1.85
2017-02-01T03:46:20.376Z,1.81
2017-02-01T03:47:02.987Z,1.84
2017-02-01T03:47:44.691Z,1.89
2017-02-01T03:48:26.354Z,1.81
2017-02-01T03:49:06.983Z,1.87
2017-02-01T03:49:49.677Z,1.81
2017-02-01T03:50:30.358Z,1.85
2017-02-01T03:51:12.033Z,1.84
2017-02-01T03:51:52.708Z,1.85
2017-02-01T03:52:34.339Z,1.81
2017-02-01T03:53:14.901Z,1.84
2017-02-01T03:53:56.583Z,1.84
2017-02-01T03:54:41.758Z,1.81
2017-02-01T03:55:22.371Z,1.87
2017-02-01T03:56:02.940Z,1.88
2017-02-01T03:56:43.596Z,1.85
2017-02-01T03:57:24.257Z,1.78
2017-02-01T03:58:05.938Z,1.84
2017-02-01T03:58:46.587Z,1.77
2017-02-01T03:59:27.229Z,1.8
2017-02-01T04:00:07.899Z,1.73
2017-02-01T04:00:48.544Z,1.89
2017-02-01T04:01:29.184Z,1.87
2017-02-01T04:02:14.633Z,1.88
2017-02-01T04:02:55.204Z,1.84
2017-02-01T04:03:35.857Z,1.81
2017-02-01T04:04:18.538Z,1.8
2017-02-01T04:04:59.089Z,1.81
2017-02-01T04:05:40.786Z,1.84
2017-02-01T04:06:21.421Z,1.81
2017-02-01T04:07:01.977Z,1.91
2017-02-01T04:07:42.687Z,1.85
2017-02-01T04:08:24.358Z,1.89
2017-02-01T04:09:05.979Z,1.84
2017-02-01T04:09:46.557Z,1.87
2017-02-01T04:10:33.957Z,1.89
2017-02-01T04:11:14.639Z,1.88
2017-02-01T04:11:55.209Z,1.84
2017-02-01T04:12:36.843Z,1.89
2017-02-01T04:13:17.474Z,1.84
2017-02-01T04:13:58.040Z,1.87
2017-02-01T04:14:39.730Z,1.84
2017-02-01T04:15:20.361Z,1.87
2017-02-01T04:16:00.919Z,1.87
2017-02-01T04:16:41.592Z,1.91
2017-02-01T04:17:22.212Z,1.84
2017-02-01T04:18:02.788Z,1.8
2017-02-01T04:18:47.940Z,1.87
2017-02-01T04:19:30.623Z,1.85
2017-02-01T04:20:11.177Z,1.91
2017-02-01T04:20:58.394Z,1.87
2017-02-01T04:21:39.030Z,1.84
2017-02-01T04:22:19.584Z,1.89
2017-02-01T04:23:00.254Z,1.88
2017-02-01T04:23:45.771Z,1.91
2017-02-01T04:24:26.433Z,1.84
2017-02-01T04:25:06.990Z,1.87
2017-02-01T04:25:47.674Z,1.8
2017-02-01T04:26:33.278Z,1.87
2017-02-01T04:27:13.898Z,1.95
2017-02-01T04:27:56.613Z,1.89
2017-02-01T04:28:38.262Z,1.94
2017-02-01T04:29:20.870Z,1.94
2017-02-01T04:30:01.527Z,1.92
2017-02-01T04:30:42.192Z,1.85
2017-02-01T04:31:22.850Z,1.88
2017-02-01T04:32:03.493Z,1.89
2017-02-01T04:32:44.144Z,1.85
2017-02-01T04:33:24.799Z,1.91
2017-02-01T04:34:05.446Z,1.87
2017-02-01T04:34:46.114Z,1.91
2017-02-01T04:35:26.760Z,1.91
2017-02-01T04:36:09.462Z,1.94
2017-02-01T04:36:50.113Z,1.89
2017-02-01T04:37:37.458Z,1.91
2017-02-01T04:38:23.911Z,1.91
2017-02-01T04:39:04.561Z,1.91
2017-02-01T04:39:45.211Z,1.87
2017-02-01T04:40:36.387Z,1.84
2017-02-01T04:41:19.014Z,1.91
2017-02-01T04:42:00.700Z,1.87
2017-02-01T04:42:41.341Z,1.87
2017-02-01T04:43:21.996Z,1.91
2017-02-01T04:44:03.674Z,1.87
2017-02-01T04:44:48.934Z,1.87
2017-02-01T04:45:31.636Z,1.89
2017-02-01T04:46:12.288Z,1.89
2017-02-01T04:46:52.946Z,1.89
2017-02-01T04:47:33.601Z,1.89
2017-02-01T04:48:14.255Z,1.91
2017-02-01T04:48:55.924Z,1.87
2017-02-01T04:49:36.576Z,1.88
2017-02-01T04:50:17.255Z,1.88
2017-02-01T04:50:57.882Z,1.81
2017-02-01T04:51:39.586Z,1.91
2017-02-01T04:52:20.261Z,1.87
2017-02-01T04:53:05.654Z,1.91
2017-02-01T04:53:46.260Z,1.88
2017-02-01T04:54:28.953Z,1.89
2017-02-01T04:55:09.618Z,1.91
2017-02-01T04:55:51.249Z,1.94
2017-02-01T04:56:31.796Z,1.88
2017-02-01T04:57:16.203Z,1.91
2017-02-01T04:57:56.867Z,1.87
2017-02-01T04:58:37.433Z,1.84
2017-02-01T04:59:18.092Z,1.91
2017-02-01T04:59:58.740Z,1.91
2017-02-01T05:00:39.386Z,1.85
2017-02-01T05:01:20.041Z,1.84
2017-02-01T05:02:00.704Z,1.85
2017-02-01T05:02:41.274Z,1.8
2017-02-01T05:03:21.898Z,1.84
2017-02-01T05:04:02.495Z,1.87
2017-02-01T05:04:43.087Z,1.81
2017-02-01T05:05:23.652Z,1.84
2017-02-01T05:06:04.301Z,1.89
2017-02-01T05:06:44.893Z,1.88
2017-02-01T05:07:25.496Z,1.8
2017-02-01T05:08:06.084Z,1.84
2017-02-01T05:08:46.715Z,1.85
2017-02-01T05:09:27.406Z,1.88
2017-02-01T05:10:08.004Z,1.88
2017-02-01T05:10:48.557Z,1.95
2017-02-01T05:11:29.223Z,1.88
2017-02-01T05:12:09.931Z,1.97
2017-02-01T05:12:50.564Z,1.84
2017-02-01T05:13:31.219Z,1.92
2017-02-01T05:14:11.872Z,1.89
2017-02-01T05:14:52.530Z,1.95
2017-02-01T05:15:33.178Z,1.97
2017-02-01T05:16:13.838Z,1.95
2017-02-01T05:16:54.487Z,1.92
2017-02-01T05:17:35.101Z,1.97
2017-02-01T05:18:15.742Z,1.91
2017-02-01T05:18:56.416Z,1.95
2017-02-01T05:19:37.078Z,1.89
2017-02-01T05:20:17.708Z,1.97
2017-02-01T05:20:58.370Z,1.92
2017-02-01T05:21:39.020Z,2
2017-02-01T05:22:19.660Z,1.89
2017-02-01T05:23:00.329Z,1.97
2017-02-01T05:23:40.991Z,1.97
2017-02-01T05:24:21.642Z,1.95
2017-02-01T05:25:02.276Z,1.94
2017-02-01T05:25:42.940Z,1.99
2017-02-01T05:26:23.581Z,1.94
2017-02-01T05:27:04.179Z,1.91
2017-02-01T05:27:44.882Z,1.95
2017-02-01T05:28:25.440Z,2
2017-02-01T05:29:06.097Z,1.99
2017-02-01T05:29:46.691Z,1.99
2017-02-01T05:30:27.286Z,1.91
2017-02-01T05:31:07.868Z,1.97
2017-02-01T05:31:48.512Z,1.99
2017-02-01T05:32:29.200Z,1.97
2017-02-01T05:33:09.799Z,1.99
2017-02-01T05:33:50.355Z,1.97
2017-02-01T05:34:31.011Z,1.91
2017-02-01T05:35:11.709Z,1.94
2017-02-01T05:35:52.302Z,1.95
2017-02-01T05:36:32.852Z,1.97
2017-02-01T05:37:13.527Z,1.95
2017-02-01T05:37:54.225Z,1.99
2017-02-01T05:38:34.819Z,2
2017-02-01T05:39:15.388Z,1.94
2017-02-01T05:39:56.043Z,1.97
2017-02-01T05:40:36.727Z,2.06
2017-02-01T05:41:17.328Z,2.06
2017-02-01T05:41:57.896Z,1.99
2017-02-01T05:42:38.547Z,2.04
2017-02-01T05:43:19.247Z,2.08
2017-02-01T05:43:59.952Z,1.99
2017-02-01T05:44:40.482Z,2.06
2017-02-01T05:45:21.168Z,2.04
2017-02-01T05:46:01.794Z,2.07
2017-02-01T05:46:42.381Z,2.07
2017-02-01T05:47:23.019Z,1.95
2017-02-01T05:48:03.668Z,2.04
2017-02-01T05:48:44.317Z,1.97
2017-02-01T05:49:24.972Z,2.1
2017-02-01T05:50:05.622Z,1.97
2017-02-01T05:50:46.292Z,1.94
2017-02-01T05:51:26.944Z,1.99
2017-02-01T05:52:07.617Z,2.07
2017-02-01T05:52:48.186Z,2.07
2017-02-01T05:53:28.798Z,2.06
2017-02-01T05:54:09.421Z,2.02
2017-02-01T05:54:49.990Z,2.07
2017-02-01T05:55:30.906Z,2.02
2017-02-01T05:56:11.593Z,1.99
2017-02-01T05:56:52.164Z,2.1
2017-02-01T05:57:32.823Z,2.1
2017-02-01T05:58:13.459Z,2.1
2017-02-01T05:58:54.116Z,2.06
2017-02-01T05:59:34.776Z,2.11
2017-02-01T06:00:15.439Z,2.07
2017-02-01T06:00:56.074Z,2
2017-02-01T06:01:36.738Z,2.04
2017-02-01T06:02:17.378Z,1.99
2017-02-01T06:02:58.140Z,1.99
2017-02-01T06:03:38.810Z,2.02
2017-02-01T06:04:19.445Z,2.02
2017-02-01T06:05:00.088Z,2.07
2017-02-01T06:05:40.743Z,2.08
2017-02-01T06:06:21.405Z,2.02
2017-02-01T06:07:02.080Z,2.02
2017-02-01T06:07:42.688Z,2.02
2017-02-01T06:08:23.248Z,2.04
2017-02-01T06:09:03.958Z,2.1
2017-02-01T06:09:44.606Z,2.02
2017-02-01T06:10:25.293Z,2.02
2017-02-01T06:11:05.846Z,2.02
2017-02-01T06:11:46.526Z,2.1
2017-02-01T06:12:27.215Z,2.02
2017-02-01T06:13:07.860Z,1.92
2017-02-01T06:13:48.514Z,2.07
2017-02-01T06:14:29.165Z,2.13
2017-02-01T06:15:09.829Z,2.07
2017-02-01T06:15:50.482Z,2.06
2017-02-01T06:16:31.134Z,2.02
2017-02-01T06:17:11.706Z,2.07
2017-02-01T06:17:52.292Z,2.04
2017-02-01T06:18:32.928Z,2.1
2017-02-01T06:19:13.517Z,2.1
2017-02-01T06:19:54.147Z,2.1
2017-02-01T06:20:34.783Z,2.06
2017-02-01T06:21:15.372Z,2.02
2017-02-01T06:21:56.012Z,2.08
2017-02-01T06:22:36.662Z,2.06
2017-02-01T06:23:17.304Z,2.07
2017-02-01T06:23:57.959Z,2.11
2017-02-01T06:24:38.614Z,2.1
2017-02-01T06:25:19.273Z,2.08
2017-02-01T06:25:59.917Z,2.07
2017-02-01T06:26:40.568Z,2.06
2017-02-01T06:27:21.261Z,1.99
2017-02-01T06:28:01.865Z,2.02
2017-02-01T06:28:42.429Z,2.02
2017-02-01T06:29:23.086Z,1.97
2017-02-01T06:30:03.774Z,2.04
2017-02-01T06:30:44.381Z,2.1
2017-02-01T06:31:24.937Z,2.11
2017-02-01T06:32:05.595Z,2
2017-02-01T06:32:46.241Z,1.94
2017-02-01T06:33:26.890Z,2.07
2017-02-01T06:34:07.555Z,2.04
2017-02-01T06:34:48.201Z,1.99
2017-02-01T06:35:28.861Z,2.11
2017-02-01T06:36:09.506Z,2.02
2017-02-01T06:36:50.159Z,2.07
2017-02-01T06:37:30.820Z,2.08
2017-02-01T06:38:11.463Z,2
2017-02-01T06:38:52.139Z,1.97
2017-02-01T06:39:32.790Z,2.06
2017-02-01T06:40:13.431Z,1.97
2017-02-01T06:40:54.099Z,1.95
2017-02-01T06:41:34.745Z,2
2017-02-01T06:42:15.420Z,1.97
2017-02-01T06:42:56.116Z,1.97
2017-02-01T06:43:36.687Z,2
2017-02-01T06:44:17.348Z,2.06
2017-02-01T06:44:58.039Z,2.02
2017-02-01T06:45:38.733Z,1.97
2017-02-01T06:46:19.295Z,2.06
2017-02-01T06:46:59.965Z,1.97
2017-02-01T06:47:40.614Z,2
2017-02-01T06:48:21.265Z,1.99
2017-02-01T06:49:01.919Z,2.07
2017-02-01T06:49:42.574Z,1.99
2017-02-01T06:50:23.238Z,2
2017-02-01T06:51:03.880Z,1.97
2017-02-01T06:51:44.528Z,1.99
2017-02-01T06:52:25.186Z,1.99
2017-02-01T06:53:05.825Z,2.06
2017-02-01T06:53:46.493Z,1.95
2017-02-01T06:54:27.158Z,2.04
2017-02-01T06:55:07.790Z,2.06
2017-02-01T06:55:48.444Z,2
2017-02-01T06:56:29.100Z,2.02
2017-02-01T06:57:09.756Z,2
2017-02-01T06:57:50.404Z,1.97
2017-02-01T06:58:31.062Z,2.08
2017-02-01T06:59:11.706Z,2.1
2017-02-01T06:59:52.360Z,2.1
2017-02-01T07:00:33.003Z,1.99
2017-02-01T07:01:13.666Z,2.06
2017-02-01T07:01:54.333Z,1.97
2017-02-01T07:02:34.972Z,2.11
2017-02-01T07:03:15.632Z,1.97
2017-02-01T07:03:56.279Z,2.13
2017-02-01T07:04:36.936Z,2.08
2017-02-01T07:05:17.591Z,2.08
2017-02-01T07:05:58.239Z,2.04
2017-02-01T07:06:38.888Z,2.1
2017-02-01T07:07:19.555Z,2.07
2017-02-01T07:08:00.195Z,2.1
2017-02-01T07:08:40.852Z,2.06
2017-02-01T07:09:21.500Z,2.08
2017-02-01T07:10:02.163Z,2.06
2017-02-01T07:10:42.821Z,2.11
2017-02-01T07:11:23.459Z,2.08
2017-02-01T07:12:04.090Z,2.02
2017-02-01T07:12:44.768Z,2.11
2017-02-01T07:13:25.416Z,2.11
2017-02-01T07:14:06.091Z,2.07
2017-02-01T07:14:46.725Z,2.11
2017-02-01T07:15:27.386Z,2.06
2017-02-01T07:16:08.035Z,2.13
2017-02-01T07:16:48.679Z,2.1
2017-02-01T07:17:29.366Z,2.13
2017-02-01T07:18:09.992Z,2.11
2017-02-01T07:18:50.642Z,2.15
2017-02-01T07:19:31.307Z,2.13
2017-02-01T07:20:11.962Z,2.13
2017-02-01T07:20:52.591Z,2.07
2017-02-01T07:21:33.257Z,2.15
2017-02-01T07:22:13.918Z,2.07
2017-02-01T07:22:54.571Z,2.07
2017-02-01T07:23:35.297Z,2.13
2017-02-01T07:24:16.034Z,2.07
2017-02-01T07:24:56.695Z,2.1
2017-02-01T07:25:37.444Z,2.06
2017-02-01T07:26:18.208Z,2.24
2017-02-01T07:26:58.952Z,2.07
2017-02-01T07:27:39.723Z,2.08
2017-02-01T07:28:20.475Z,2.17
2017-02-01T07:29:01.223Z,2.18
2017-02-01T07:29:41.977Z,2.1
2017-02-01T07:30:22.743Z,2.13
2017-02-01T07:31:03.481Z,2.08
2017-02-01T07:31:44.251Z,2.1
2017-02-01T07:32:24.997Z,2.1
2017-02-01T07:33:05.748Z,2.11
2017-02-01T07:33:46.546Z,2.07
2017-02-01T07:34:27.296Z,2.14
2017-02-01T07:35:08.023Z,2.1
2017-02-01T07:35:48.780Z,2.17
2017-02-01T07:36:29.526Z,2.15
2017-02-01T07:37:10.285Z,2.2
2017-02-01T07:37:51.085Z,2.15
2017-02-01T07:38:31.786Z,2.1
2017-02-01T07:39:12.365Z,2.06
2017-02-01T07:39:53.121Z,2.1
2017-02-01T07:40:33.898Z,2.13
2017-02-01T07:41:14.594Z,2.15
2017-02-01T07:41:55.166Z,2.18
2017-02-01T07:42:35.948Z,2.2
2017-02-01T07:43:16.722Z,2.15
2017-02-01T07:43:57.415Z,2.17
2017-02-01T07:44:37.977Z,2.2
2017-02-01T07:45:18.738Z,2.22
2017-02-01T07:45:59.537Z,2.17
2017-02-01T07:46:40.232Z,2.15
2017-02-01T07:47:20.986Z,2.18
2017-02-01T07:48:01.742Z,2.18
2017-02-01T07:48:42.497Z,2.2
2017-02-01T07:49:23.252Z,2.18
2017-02-01T07:50:04.013Z,2.24
2017-02-01T07:50:44.765Z,2.24
2017-02-01T07:51:25.520Z,2.26
2017-02-01T07:52:06.164Z,2.22
2017-02-01T07:52:46.929Z,2.24
2017-02-01T07:53:27.573Z,2.2
2017-02-01T07:54:08.337Z,2.2
2017-02-01T07:54:49.088Z,2.14
2017-02-01T07:55:29.740Z,2.2
2017-02-01T07:56:10.398Z,2.2
2017-02-01T07:56:51.150Z,2.18
2017-02-01T07:57:31.728Z,2.31
2017-02-01T07:58:12.508Z,2.24
2017-02-01T07:58:53.273Z,2.29
2017-02-01T07:59:33.867Z,2.25
2017-02-01T08:00:14.455Z,2.17
2017-02-01T08:00:55.190Z,2.28
2017-02-01T08:01:35.987Z,2.26
2017-02-01T08:02:16.570Z,2.28
2017-02-01T08:02:57.262Z,2.29
2017-02-01T08:03:37.883Z,2.32
2017-02-01T08:04:18.475Z,2.22
2017-02-01T08:04:59.120Z,2.24
2017-02-01T08:05:39.744Z,2.24
2017-02-01T08:06:20.317Z,2.32
2017-02-01T08:07:01.072Z,2.24
2017-02-01T08:07:41.706Z,2.33
2017-02-01T08:08:22.359Z,2.36
2017-02-01T08:09:03.000Z,2.35
2017-02-01T08:09:43.661Z,2.39
2017-02-01T08:10:24.316Z,2.29
2017-02-01T08:11:04.963Z,2.36
2017-02-01T08:11:45.621Z,2.31
2017-02-01T08:12:26.277Z,2.32
2017-02-01T08:13:06.968Z,2.35
2017-02-01T08:13:47.590Z,2.32
2017-02-01T08:14:28.231Z,2.36
2017-02-01T08:15:08.897Z,2.38
2017-02-01T08:15:49.630Z,2.38
2017-02-01T08:16:31.415Z,2.49
2017-02-01T08:17:11.995Z,2.5
2017-02-01T08:17:52.739Z,2.43
2017-02-01T08:18:33.472Z,2.5
2017-02-01T08:19:14.041Z,2.47
2017-02-01T08:19:54.809Z,2.54
2017-02-01T08:20:35.530Z,2.54
2017-02-01T08:21:16.098Z,2.5
2017-02-01T08:21:56.895Z,2.51
2017-02-01T08:22:37.589Z,2.5
2017-02-01T08:23:18.347Z,2.54
2017-02-01T08:23:59.102Z,2.49
2017-02-01T08:24:39.859Z,2.47
2017-02-01T08:25:20.612Z,2.64
2017-02-01T08:26:02.397Z,2.6
2017-02-01T08:26:43.149Z,2.62
2017-02-01T08:27:23.904Z,2.62
2017-02-01T08:28:04.662Z,2.62
2017-02-01T08:28:45.422Z,2.67
2017-02-01T08:29:26.174Z,2.67
2017-02-01T08:30:06.925Z,2.62
2017-02-01T08:30:47.686Z,2.65
2017-02-01T08:31:28.431Z,2.74
2017-02-01T08:32:09.003Z,2.74
2017-02-01T08:32:49.763Z,2.75
2017-02-01T08:33:30.447Z,2.64
2017-02-01T08:34:11.149Z,2.72
2017-02-01T08:34:51.708Z,2.72
2017-02-01T08:35:32.479Z,2.72
2017-02-01T08:36:13.262Z,2.72
2017-02-01T08:36:53.969Z,2.67
2017-02-01T08:37:34.621Z,2.74
2017-02-01T08:38:15.377Z,2.77
2017-02-01T08:38:56.143Z,2.77
2017-02-01T08:39:36.895Z,2.72
2017-02-01T08:40:17.465Z,2.72
2017-02-01T08:40:59.228Z,2.74
2017-02-01T08:41:39.994Z,2.75
2017-02-01T08:42:20.757Z,2.71
2017-02-01T08:43:02.508Z,2.69
2017-02-01T08:43:43.078Z,2.79
2017-02-01T08:44:23.828Z,2.82
2017-02-01T08:45:04.584Z,2.86
2017-02-01T08:45:45.147Z,2.85
2017-02-01T08:46:25.922Z,2.83
2017-02-01T08:47:06.628Z,2.82
2017-02-01T08:47:47.382Z,2.82
2017-02-01T08:48:28.028Z,2.87
2017-02-01T08:49:08.695Z,2.79
2017-02-01T08:49:49.338Z,2.86
2017-02-01T08:50:29.992Z,2.85
2017-02-01T08:51:10.650Z,2.85
2017-02-01T08:51:51.297Z,2.92
2017-02-01T08:52:31.868Z,2.87
2017-02-01T08:53:12.535Z,2.92
2017-02-01T08:53:53.219Z,2.97
2017-02-01T08:54:33.904Z,3.05
2017-02-01T08:55:14.656Z,3.04
2017-02-01T08:55:55.339Z,3.03
2017-02-01T08:56:35.921Z,3.05
2017-02-01T08:57:16.518Z,3.08
2017-02-01T08:57:57.075Z,3.14
2017-02-01T08:58:37.755Z,3.18
2017-02-01T08:59:19.356Z,3.1
2017-02-01T08:59:59.956Z,3.19
2017-02-01T09:00:40.555Z,3.22
2017-02-01T09:01:22.209Z,3.19
2017-02-01T09:02:03.912Z,3.34
2017-02-01T09:02:44.512Z,3.22
2017-02-01T09:03:25.152Z,3.22
2017-02-01T09:04:05.817Z,3.22
2017-02-01T09:04:46.473Z,3.19
2017-02-01T09:05:27.122Z,3.19
2017-02-01T09:06:08.801Z,3.28
2017-02-01T09:06:49.452Z,3.28
2017-02-01T09:07:30.107Z,3.29